createdAt,value
2024-03-09T00:03:20.142Z,-0.50
2024-03-09T00:06:43.993Z,-0.50
2024-03-09T00:10:08.083Z,-0.54
2024-03-09T00:13:40.335Z,-0.59
2024-03-09T00:17:04.589Z,-0.60
2024-03-09T00:20:34.807Z,-0.59
2024-03-09T00:24:05.001Z,-0.60
2024-03-09T00:27:35.179Z,-0.61
2024-03-09T00:31:05.351Z,-0.65
2024-03-09T00:34:29.373Z,-0.72
2024-03-09T00:37:59.532Z,-0.76
2024-03-09T00:41:29.860Z,-0.78
2024-03-09T00:44:59.860Z,-0.77
2024-03-09T00:48:29.597Z,-0.80
2024-03-09T00:51:59.643Z,-0.81
2024-03-09T00:55:29.932Z,-0.84
2024-03-09T00:59:01.333Z,-0.83
2024-03-09T01:02:32.966Z,-0.87
2024-03-09T01:06:03.074Z,-0.88
2024-03-09T01:09:33.539Z,-0.88
2024-03-09T01:12:57.681Z,-0.87
2024-03-09T01:16:21.460Z,-0.85
2024-03-09T01:19:47.313Z,-0.82
2024-03-09T01:23:17.204Z,-0.81
2024-03-09T01:26:40.945Z,-0.81
2024-03-09T01:30:11.844Z,-0.82
2024-03-09T01:33:42.048Z,-0.88
2024-03-09T01:37:11.889Z,-0.91
2024-03-09T01:40:40.684Z,-0.92
2024-03-09T01:44:04.614Z,-0.94
2024-03-09T01:47:31.227Z,-0.96
2024-03-09T01:50:58.929Z,-0.99
2024-03-09T01:54:27.198Z,-1.01
2024-03-09T01:57:55.583Z,-1.03
2024-03-09T02:01:23.869Z,-1.05
2024-03-09T02:04:52.749Z,-1.07
2024-03-09T02:08:20.526Z,-1.07
2024-03-09T02:11:48.834Z,-1.07
2024-03-09T02:15:12.990Z,-1.08
2024-03-09T02:18:37.823Z,-1.08
2024-03-09T02:22:01.768Z,-1.09
2024-03-09T02:25:30.040Z,-1.08
2024-03-09T02:28:54.154Z,-1.07
2024-03-09T02:32:20.511Z,-1.06
2024-03-09T02:35:49.267Z,-1.04
2024-03-09T02:39:17.718Z,-1.03
2024-03-09T02:42:45.955Z,-1.01
2024-03-09T02:46:09.681Z,-0.99
2024-03-09T02:49:36.421Z,-0.97
2024-03-09T02:53:05.195Z,-0.92
2024-03-09T02:56:33.690Z,-0.85
2024-03-09T03:00:01.965Z,-0.79
2024-03-09T03:03:30.683Z,-0.74
2024-03-09T03:06:59.102Z,-0.71
2024-03-09T03:10:27.235Z,-0.69
2024-03-09T03:13:55.866Z,-0.66
2024-03-09T03:17:19.852Z,-0.64
2024-03-09T03:20:43.438Z,-0.64
2024-03-09T03:24:08.893Z,-0.64
2024-03-09T03:27:37.130Z,-0.63
2024-03-09T03:31:00.993Z,-0.62
2024-03-09T03:34:29.264Z,-0.61
2024-03-09T03:37:55.908Z,-0.54
2024-03-09T03:41:24.827Z,-0.48
2024-03-09T03:44:53.337Z,-0.42
2024-03-09T03:48:17.388Z,-0.38
2024-03-09T03:51:42.845Z,-0.35
2024-03-09T03:55:11.620Z,-0.34
2024-03-09T03:58:40.493Z,-0.34
2024-03-09T04:02:09.112Z,-0.34
2024-03-09T04:05:37.229Z,-0.34
2024-03-09T04:09:05.146Z,-0.34
2024-03-09T04:12:29.145Z,-0.33
2024-03-09T04:15:52.779Z,-0.29
2024-03-09T04:19:16.788Z,-0.25
2024-03-09T04:22:52.777Z,-0.20
2024-03-09T04:26:28.722Z,-0.16
2024-03-09T04:30:04.389Z,-0.14
2024-03-09T04:33:40.532Z,-0.13
2024-03-09T04:37:16.665Z,-0.11
2024-03-09T04:40:52.819Z,-0.10
2024-03-09T04:44:30.985Z,-0.10
2024-03-09T04:48:07.300Z,-0.09
2024-03-09T04:51:43.479Z,-0.07
2024-03-09T04:55:19.616Z,-0.02
2024-03-09T04:58:56.669Z,0.04
2024-03-09T05:02:32.372Z,0.09
2024-03-09T05:06:08.547Z,0.13
2024-03-09T05:09:44.501Z,0.17
2024-03-09T05:13:20.242Z,0.22
2024-03-09T05:16:56.523Z,0.25
2024-03-09T05:20:32.501Z,0.27
2024-03-09T05:24:08.767Z,0.30
2024-03-09T05:27:44.838Z,0.33
2024-03-09T05:31:20.627Z,0.38
2024-03-09T05:34:57.066Z,0.45
2024-03-09T05:38:33.269Z,0.51
2024-03-09T05:42:09.205Z,0.59
2024-03-09T05:45:45.263Z,0.66
2024-03-09T05:49:21.303Z,0.70
2024-03-09T05:52:57.528Z,0.74
2024-03-09T05:56:27.714Z,0.78
2024-03-09T05:59:57.689Z,0.80
2024-03-09T06:03:27.772Z,0.86
2024-03-09T06:06:57.709Z,0.95
2024-03-09T06:10:27.456Z,1.05
2024-03-09T06:13:57.893Z,1.12
2024-03-09T06:17:27.913Z,1.20
2024-03-09T06:20:57.968Z,1.29
2024-03-09T06:24:28.118Z,1.39
2024-03-09T06:27:58.400Z,1.49
2024-03-09T06:31:28.540Z,1.60
2024-03-09T06:34:58.943Z,1.72
2024-03-09T06:38:28.970Z,1.86
2024-03-09T06:41:58.895Z,2.03
2024-03-09T06:45:28.771Z,2.31
2024-03-09T06:48:58.929Z,2.70
2024-03-09T06:52:29.154Z,3.08
2024-03-09T06:55:59.246Z,3.43
2024-03-09T06:59:29.325Z,3.75
2024-03-09T07:02:59.760Z,4.27
2024-03-09T07:06:29.450Z,5.02
2024-03-09T07:09:59.870Z,5.73
2024-03-09T07:13:29.992Z,6.29
2024-03-09T07:17:00.454Z,6.80
2024-03-09T07:20:30.841Z,7.31
2024-03-09T07:24:01.284Z,7.84
2024-03-09T07:27:31.450Z,8.34
2024-03-09T07:31:01.496Z,8.86
2024-03-09T07:34:31.471Z,9.57
2024-03-09T07:38:02.463Z,10.18
2024-03-09T07:41:27.177Z,10.54
2024-03-09T07:44:51.239Z,10.68
2024-03-09T07:48:15.356Z,10.84
2024-03-09T07:51:39.305Z,11.01
2024-03-09T07:55:03.386Z,11.32
2024-03-09T07:58:27.909Z,11.55
2024-03-09T08:01:52.083Z,11.72
2024-03-09T08:05:16.242Z,11.81
2024-03-09T08:08:41.668Z,11.81
2024-03-09T08:12:05.332Z,11.44
2024-03-09T08:15:29.181Z,11.16
2024-03-09T08:18:59.356Z,11.17
2024-03-09T08:22:29.169Z,11.47
2024-03-09T08:25:59.402Z,11.88
2024-03-09T08:29:29.126Z,12.27
2024-03-09T08:32:59.017Z,12.70
2024-03-09T08:36:28.964Z,13.13
2024-03-09T08:39:58.868Z,13.28
2024-03-09T08:43:24.462Z,13.24
2024-03-09T08:46:54.709Z,13.19
2024-03-09T08:50:24.807Z,13.19
2024-03-09T08:53:55.775Z,13.13
2024-03-09T08:57:25.804Z,13.20
2024-03-09T09:00:55.665Z,13.38
2024-03-09T09:04:25.966Z,13.43
2024-03-09T09:07:56.101Z,13.39
2024-03-09T09:11:26.385Z,13.37
2024-03-09T09:14:56.201Z,13.09
2024-03-09T09:18:26.449Z,12.84
2024-03-09T09:21:56.600Z,12.77
2024-03-09T09:25:29.778Z,12.70
2024-03-09T09:29:02.338Z,12.59
2024-03-09T09:32:32.399Z,12.39
2024-03-09T09:36:02.492Z,12.25
2024-03-09T09:39:33.234Z,12.20
2024-03-09T09:42:56.878Z,12.05
2024-03-09T09:46:20.792Z,11.87
2024-03-09T09:49:47.882Z,11.84
2024-03-09T09:53:17.818Z,11.83
2024-03-09T09:56:48.034Z,11.90
2024-03-09T10:00:18.125Z,12.06
2024-03-09T10:03:48.382Z,12.27
2024-03-09T10:07:18.429Z,12.58
2024-03-09T10:10:48.789Z,12.78
2024-03-09T10:14:18.890Z,13.02
2024-03-09T10:17:49.199Z,13.16
2024-03-09T10:21:19.423Z,13.28
2024-03-09T10:24:49.714Z,13.56
2024-03-09T10:28:19.939Z,13.82
2024-03-09T10:31:49.914Z,14.19
2024-03-09T10:35:19.920Z,14.67
2024-03-09T10:38:49.930Z,15.07
2024-03-09T10:42:20.148Z,15.31
2024-03-09T10:45:49.318Z,15.43
2024-03-09T10:49:17.878Z,15.46
2024-03-09T10:52:42.005Z,15.38
2024-03-09T10:56:06.384Z,15.32
2024-03-09T10:59:17.746Z,15.38
2024-03-09T11:02:47.925Z,15.38
2024-03-09T11:06:18.028Z,15.49
2024-03-09T11:09:51.199Z,15.56
2024-03-09T11:13:16.635Z,15.47
2024-03-09T11:16:46.736Z,15.44
2024-03-09T11:20:16.766Z,15.51
2024-03-09T11:23:46.835Z,15.42
2024-03-09T11:27:16.509Z,15.27
2024-03-09T11:30:44.757Z,15.09
2024-03-09T11:34:13.132Z,15.00
2024-03-09T11:37:41.921Z,14.83
2024-03-09T11:41:11.555Z,14.61
2024-03-09T11:44:41.744Z,14.59
2024-03-09T11:48:05.722Z,14.75
2024-03-09T11:51:30.402Z,14.92
2024-03-09T11:54:54.220Z,15.00
2024-03-09T11:58:21.675Z,14.84
2024-03-09T12:01:51.282Z,14.68
2024-03-09T12:05:19.930Z,14.48
2024-03-09T12:08:48.398Z,14.07
2024-03-09T12:12:17.250Z,13.61
2024-03-09T12:15:47.265Z,13.24
2024-03-09T12:19:17.587Z,12.95
2024-03-09T12:22:47.609Z,12.68
2024-03-09T12:26:17.803Z,12.39
2024-03-09T12:29:47.750Z,12.15
2024-03-09T12:33:17.981Z,11.92
2024-03-09T12:36:47.647Z,11.75
2024-03-09T12:40:17.730Z,11.52
2024-03-09T12:43:47.951Z,11.36
2024-03-09T12:47:18.196Z,11.26
2024-03-09T12:50:48.066Z,11.14
2024-03-09T12:54:18.256Z,10.96
2024-03-09T12:57:48.237Z,10.81
2024-03-09T13:01:18.044Z,10.68
2024-03-09T13:04:48.235Z,10.63
2024-03-09T13:08:18.363Z,10.51
2024-03-09T13:11:48.522Z,10.40
2024-03-09T13:15:18.440Z,10.34
2024-03-09T13:18:48.739Z,10.29
2024-03-09T13:22:18.607Z,10.17
2024-03-09T13:25:48.920Z,10.02
2024-03-09T13:29:18.985Z,9.96
2024-03-09T13:32:48.963Z,9.87
2024-03-09T13:36:19.025Z,9.77
2024-03-09T13:39:49.226Z,9.77
2024-03-09T13:43:19.498Z,9.73
2024-03-09T13:46:49.480Z,9.71
2024-03-09T13:50:19.770Z,9.61
2024-03-09T13:53:49.646Z,9.53
2024-03-09T13:57:19.601Z,9.46
2024-03-09T14:00:49.544Z,9.37
2024-03-09T14:04:21.848Z,9.32
2024-03-09T14:07:53.322Z,9.31
2024-03-09T14:11:23.721Z,9.28
2024-03-09T14:14:53.412Z,9.25
2024-03-09T14:18:24.043Z,9.23
2024-03-09T14:21:53.872Z,9.18
2024-03-09T14:25:24.086Z,9.14
2024-03-09T14:28:53.549Z,9.07
2024-03-09T14:32:23.352Z,9.00
2024-03-09T14:35:53.628Z,8.88
2024-03-09T14:39:23.540Z,8.79
2024-03-09T14:42:53.774Z,8.71
2024-03-09T14:46:23.368Z,8.66
2024-03-09T14:49:53.607Z,8.63
2024-03-09T14:53:23.652Z,8.58
2024-03-09T14:56:53.799Z,8.53
2024-03-09T15:00:23.743Z,8.42
2024-03-09T15:03:53.809Z,8.32
2024-03-09T15:07:23.714Z,8.25
2024-03-09T15:10:53.806Z,8.19
2024-03-09T15:14:24.049Z,8.11
2024-03-09T15:17:53.882Z,8.03
2024-03-09T15:21:24.341Z,7.95
2024-03-09T15:24:54.333Z,7.88
2024-03-09T15:28:24.443Z,7.79
2024-03-09T15:31:54.500Z,7.71
2024-03-09T15:35:24.795Z,7.65
2024-03-09T15:38:54.989Z,7.61
2024-03-09T15:42:24.732Z,7.51
2024-03-09T15:45:54.615Z,7.45
2024-03-09T15:49:18.332Z,7.39
2024-03-09T15:52:48.500Z,7.30
2024-03-09T15:56:18.543Z,7.25
2024-03-09T15:59:42.587Z,7.19
2024-03-09T16:03:12.740Z,7.15
2024-03-09T16:06:42.830Z,7.09
2024-03-09T16:10:12.925Z,7.05
2024-03-09T16:13:43.178Z,7.00
2024-03-09T16:17:13.231Z,6.91
2024-03-09T16:20:43.255Z,6.84
2024-03-09T16:24:13.301Z,6.82
2024-03-09T16:27:43.080Z,6.78
2024-03-09T16:31:13.368Z,6.74
2024-03-09T16:34:43.188Z,6.68
2024-03-09T16:38:13.119Z,6.63
2024-03-09T16:41:43.279Z,6.58
2024-03-09T16:45:13.014Z,6.51
2024-03-09T16:48:43.152Z,6.46
2024-03-09T16:52:12.876Z,6.41
2024-03-09T16:55:42.931Z,6.35
2024-03-09T16:59:12.726Z,6.31
2024-03-09T17:02:42.844Z,6.28
2024-03-09T17:06:12.745Z,6.25
2024-03-09T17:09:42.930Z,6.20
2024-03-09T17:13:12.804Z,6.15
2024-03-09T17:16:42.897Z,6.09
2024-03-09T17:20:13.182Z,6.04
2024-03-09T17:23:43.625Z,6.00
2024-03-09T17:27:13.593Z,5.95
2024-03-09T17:30:43.597Z,5.88
2024-03-09T17:34:13.929Z,5.83
2024-03-09T17:37:43.973Z,5.78
2024-03-09T17:41:13.885Z,5.72
2024-03-09T17:44:43.832Z,5.68
2024-03-09T17:48:13.981Z,5.65
2024-03-09T17:51:44.623Z,5.61
2024-03-09T17:55:14.731Z,5.58
2024-03-09T17:58:45.169Z,5.52
2024-03-09T18:02:15.201Z,5.48
2024-03-09T18:05:45.191Z,5.44
2024-03-09T18:09:15.319Z,5.40
2024-03-09T18:12:45.470Z,5.36
2024-03-09T18:16:15.288Z,5.32
2024-03-09T18:19:45.302Z,5.28
2024-03-09T18:23:15.074Z,5.24
2024-03-09T18:26:47.541Z,5.20
2024-03-09T18:30:17.105Z,5.15
2024-03-09T18:33:47.036Z,5.12
2024-03-09T18:37:17.253Z,5.09
2024-03-09T18:40:47.039Z,5.03
2024-03-09T18:44:17.409Z,5.00
2024-03-09T18:47:47.755Z,4.94
2024-03-09T18:51:17.784Z,4.90
2024-03-09T18:54:47.370Z,4.83
2024-03-09T18:58:17.087Z,4.81
2024-03-09T19:01:47.294Z,4.80
2024-03-09T19:05:17.279Z,4.81
2024-03-09T19:08:47.295Z,4.81
2024-03-09T19:12:17.146Z,4.80
2024-03-09T19:15:46.988Z,4.78
2024-03-09T19:19:17.227Z,4.75
2024-03-09T19:22:47.268Z,4.73
2024-03-09T19:26:17.269Z,4.70
2024-03-09T19:29:47.536Z,4.68
2024-03-09T19:33:17.562Z,4.67
2024-03-09T19:36:47.515Z,4.67
2024-03-09T19:40:17.675Z,4.63
2024-03-09T19:43:48.170Z,4.59
2024-03-09T19:47:18.188Z,4.55
2024-03-09T19:50:48.565Z,4.53
2024-03-09T19:54:18.502Z,4.50
2024-03-09T19:57:48.730Z,4.49
2024-03-09T20:01:19.090Z,4.46
2024-03-09T20:04:49.081Z,4.42
2024-03-09T20:08:19.821Z,4.38
2024-03-09T20:11:49.874Z,4.34
2024-03-09T20:15:19.502Z,4.28
2024-03-09T20:18:46.231Z,4.22
2024-03-09T20:22:16.280Z,4.19
2024-03-09T20:25:40.456Z,4.14
2024-03-09T20:29:10.855Z,4.08
2024-03-09T20:32:39.463Z,4.02
2024-03-09T20:36:09.015Z,3.96
2024-03-09T20:39:37.308Z,3.90
2024-03-09T20:43:05.843Z,3.84
2024-03-09T20:46:35.249Z,3.79
2024-03-09T20:50:05.584Z,3.75
2024-03-09T20:53:29.513Z,3.69
2024-03-09T20:56:59.618Z,3.63
2024-03-09T21:00:29.467Z,3.58
2024-03-09T21:03:57.000Z,3.53
2024-03-09T21:07:27.192Z,3.47
2024-03-09T21:10:51.296Z,3.41
2024-03-09T21:14:18.280Z,3.36
2024-03-09T21:17:47.140Z,3.29
2024-03-09T21:21:17.162Z,3.20
2024-03-09T21:24:44.900Z,3.15
2024-03-09T21:28:15.186Z,3.10
2024-03-09T21:31:44.432Z,3.07
2024-03-09T21:35:12.971Z,3.02
2024-03-09T21:38:36.836Z,2.96
2024-03-09T21:42:06.845Z,2.91
2024-03-09T21:45:35.510Z,2.84
2024-03-09T21:49:06.047Z,2.79
2024-03-09T21:52:35.709Z,2.74
2024-03-09T21:55:59.760Z,2.69
2024-03-09T21:59:29.563Z,2.64
2024-03-09T22:02:53.884Z,2.60
2024-03-09T22:06:23.834Z,2.55
2024-03-09T22:09:53.799Z,2.52
2024-03-09T22:13:22.477Z,2.47
2024-03-09T22:16:52.277Z,2.42
2024-03-09T22:20:22.614Z,2.34
2024-03-09T22:23:52.527Z,2.29
2024-03-09T22:27:21.037Z,2.25
2024-03-09T22:30:50.167Z,2.21
2024-03-09T22:34:19.216Z,2.18
2024-03-09T22:37:47.936Z,2.14
2024-03-09T22:41:11.952Z,2.12
2024-03-09T22:44:41.376Z,2.09
2024-03-09T22:48:10.449Z,2.04
2024-03-09T22:51:39.260Z,1.98
2024-03-09T22:55:07.923Z,1.94
2024-03-09T22:58:32.163Z,1.96
2024-03-09T23:02:01.990Z,1.96
2024-03-09T23:05:30.835Z,1.97
2024-03-09T23:09:01.038Z,1.96
2024-03-09T23:12:24.924Z,1.93
2024-03-09T23:15:51.571Z,1.91
2024-03-09T23:19:20.624Z,1.86
2024-03-09T23:22:48.741Z,1.82
2024-03-09T23:26:12.698Z,1.77
2024-03-09T23:29:41.015Z,1.71
2024-03-09T23:33:10.227Z,1.66
2024-03-09T23:36:37.849Z,1.61
2024-03-09T23:40:06.227Z,1.59
2024-03-09T23:43:35.671Z,1.55
2024-03-09T23:47:04.216Z,1.53
2024-03-09T23:50:32.945Z,1.54
2024-03-09T23:54:02.875Z,1.54
2024-03-09T23:57:33.069Z,1.52
